createdAt,value
2023-04-16T00:00:29.520Z,12.77
2023-04-16T00:02:56.636Z,13.35
2023-04-16T00:05:23.716Z,11.35
2023-04-16T00:07:51.607Z,12.32
2023-04-16T00:10:18.733Z,12.70
2023-04-16T00:12:45.894Z,13.30
2023-04-16T00:15:12.816Z,14.77
2023-04-16T00:17:39.874Z,13.20
2023-04-16T00:20:08.947Z,17.20
2023-04-16T00:22:35.914Z,12.18
2023-04-16T00:25:03.157Z,12.55
2023-04-16T00:27:30.160Z,14.07
2023-04-16T00:29:57.134Z,13.32
2023-04-16T00:32:24.179Z,12.32
2023-04-16T00:34:51.161Z,13.13
2023-04-16T00:37:18.076Z,13.80
2023-04-16T00:39:44.987Z,11.65
2023-04-16T00:42:11.974Z,13.43
2023-04-16T00:44:38.845Z,13.65
2023-04-16T00:47:07.672Z,13.32
2023-04-16T00:49:36.334Z,13.07
2023-04-16T00:52:03.456Z,14.77
2023-04-16T00:54:32.200Z,14.98
2023-04-16T00:57:00.077Z,13.65
2023-04-16T00:59:27.613Z,13.75
2023-04-16T01:01:54.583Z,14.68
2023-04-16T01:04:21.953Z,13.20
2023-04-16T01:06:49.052Z,14.63
2023-04-16T01:09:16.898Z,14.90
2023-04-16T01:11:43.797Z,14.77
2023-04-16T01:14:10.731Z,14.23
2023-04-16T01:16:37.684Z,13.05
2023-04-16T01:19:04.645Z,17.63
2023-04-16T01:21:31.533Z,15.45
2023-04-16T01:24:02.035Z,16.02
2023-04-16T01:26:28.954Z,16.17
2023-04-16T01:28:56.270Z,15.50
2023-04-16T01:31:23.223Z,15.43
2023-04-16T01:33:50.280Z,15.63
2023-04-16T01:36:17.472Z,18.73
2023-04-16T01:38:44.366Z,17.60
2023-04-16T01:41:11.292Z,16.02
2023-04-16T01:43:40.197Z,16.20
2023-04-16T01:46:21.175Z,16.55
2023-04-16T01:48:48.450Z,17.00
2023-04-16T01:51:15.404Z,16.83
2023-04-16T01:53:42.289Z,16.50
2023-04-16T01:56:09.197Z,16.48
2023-04-16T01:58:36.110Z,16.92
2023-04-16T02:01:03.752Z,16.45
2023-04-16T02:03:31.627Z,15.38
2023-04-16T02:05:58.674Z,19.25
2023-04-16T02:08:25.613Z,17.75
2023-04-16T02:10:53.058Z,17.63
2023-04-16T02:13:20.033Z,15.75
2023-04-16T02:15:48.909Z,17.15
2023-04-16T02:18:16.319Z,17.13
2023-04-16T02:20:45.760Z,15.93
2023-04-16T02:23:15.078Z,17.95
2023-04-16T02:25:44.462Z,16.70
2023-04-16T02:28:13.769Z,16.02
2023-04-16T02:30:41.948Z,15.20
2023-04-16T02:33:11.677Z,17.15
2023-04-16T02:35:40.469Z,15.40
2023-04-16T02:38:08.608Z,17.08
2023-04-16T02:40:35.866Z,17.67
2023-04-16T02:43:03.246Z,15.60
2023-04-16T02:45:31.638Z,15.18
2023-04-16T02:47:59.715Z,16.75
2023-04-16T02:50:29.789Z,16.02
2023-04-16T02:52:56.869Z,15.45
2023-04-16T02:55:23.858Z,17.25
2023-04-16T02:57:51.971Z,14.82
2023-04-16T03:00:22.508Z,17.75
2023-04-16T03:02:49.500Z,18.60
2023-04-16T03:05:16.549Z,17.30
2023-04-16T03:07:43.668Z,19.00
2023-04-16T03:10:11.937Z,15.52
2023-04-16T03:12:39.229Z,16.38
2023-04-16T03:15:06.799Z,18.98
2023-04-16T03:17:33.795Z,15.40
2023-04-16T03:20:00.979Z,17.40
2023-04-16T03:22:27.850Z,18.50
2023-04-16T03:24:54.956Z,17.30
2023-04-16T03:27:21.788Z,17.00
2023-04-16T03:29:48.699Z,17.95
2023-04-16T03:32:15.655Z,18.60
2023-04-16T03:34:42.629Z,20.35
2023-04-16T03:37:12.069Z,18.95
2023-04-16T03:39:39.456Z,21.20
2023-04-16T03:42:06.563Z,17.83
2023-04-16T03:44:33.851Z,18.48
2023-04-16T03:47:00.886Z,18.92
2023-04-16T03:49:27.839Z,18.85
2023-04-16T03:51:55.158Z,17.58
2023-04-16T03:54:22.850Z,17.35
2023-04-16T03:56:50.049Z,18.80
2023-04-16T03:59:16.923Z,16.45
2023-04-16T04:01:43.998Z,17.27
2023-04-16T04:04:11.200Z,17.27
2023-04-16T04:06:38.262Z,19.88
2023-04-16T04:09:05.653Z,18.30
2023-04-16T04:11:32.646Z,17.27
2023-04-16T04:13:59.646Z,17.23
2023-04-16T04:16:26.623Z,17.83
2023-04-16T04:18:53.543Z,16.70
2023-04-16T04:21:20.489Z,18.15
2023-04-16T04:23:47.418Z,16.48
2023-04-16T04:26:14.319Z,16.35
2023-04-16T04:28:41.377Z,16.20
2023-04-16T04:31:08.296Z,19.90
2023-04-16T04:33:35.463Z,15.77
2023-04-16T04:36:02.470Z,17.00
2023-04-16T04:38:30.437Z,14.45
2023-04-16T04:40:57.651Z,16.95
2023-04-16T04:43:24.811Z,16.95
2023-04-16T04:45:51.751Z,16.63
2023-04-16T04:48:18.699Z,16.65
2023-04-16T04:50:46.474Z,17.80
2023-04-16T04:53:15.020Z,15.50
2023-04-16T04:55:42.076Z,17.52
2023-04-16T04:58:11.996Z,15.55
2023-04-16T05:00:39.008Z,16.92
2023-04-16T05:03:10.889Z,15.68
2023-04-16T05:05:40.062Z,18.13
2023-04-16T05:08:07.619Z,18.80
2023-04-16T05:10:34.517Z,16.50
2023-04-16T05:13:01.769Z,16.30
2023-04-16T05:15:28.787Z,15.90
2023-04-16T05:17:58.524Z,15.70
2023-04-16T05:20:25.478Z,17.15
2023-04-16T05:22:52.449Z,15.68
2023-04-16T05:25:19.366Z,15.18
2023-04-16T05:27:46.326Z,19.42
2023-04-16T05:30:13.280Z,18.77
2023-04-16T05:32:41.409Z,18.85
2023-04-16T05:35:09.937Z,16.08
2023-04-16T05:37:36.931Z,16.55
2023-04-16T05:40:04.190Z,18.27
2023-04-16T05:42:31.160Z,17.77
2023-04-16T05:44:58.156Z,19.88
2023-04-16T05:47:25.506Z,17.45
2023-04-16T05:49:52.429Z,16.40
2023-04-16T05:52:19.303Z,15.75
2023-04-16T05:54:46.198Z,16.67
2023-04-16T05:57:14.470Z,16.20
2023-04-16T05:59:42.519Z,17.08
2023-04-16T06:02:09.644Z,17.60
2023-04-16T06:04:37.256Z,18.30
2023-04-16T06:07:04.201Z,15.60
2023-04-16T06:09:31.282Z,16.65
2023-04-16T06:11:58.250Z,16.83
2023-04-16T06:14:25.279Z,17.55
2023-04-16T06:16:52.135Z,15.90
2023-04-16T06:19:19.028Z,17.67
2023-04-16T06:21:46.242Z,14.90
2023-04-16T06:24:13.358Z,17.00
2023-04-16T06:26:40.374Z,15.48
2023-04-16T06:29:07.509Z,16.42
2023-04-16T06:31:34.815Z,17.80
2023-04-16T06:34:01.846Z,17.25
2023-04-16T06:36:29.221Z,17.13
2023-04-16T06:38:56.109Z,15.20
2023-04-16T06:41:25.494Z,16.33
2023-04-16T06:43:52.598Z,15.40
2023-04-16T06:46:19.654Z,16.10
2023-04-16T06:48:46.843Z,15.20
2023-04-16T06:51:13.776Z,15.93
2023-04-16T06:53:40.987Z,16.25
2023-04-16T06:56:08.436Z,16.10
2023-04-16T06:58:35.458Z,15.75
2023-04-16T07:01:02.782Z,17.40
2023-04-16T07:03:29.825Z,15.27
2023-04-16T07:05:57.070Z,14.10
2023-04-16T07:08:24.698Z,14.30
2023-04-16T07:10:53.805Z,14.93
2023-04-16T07:13:21.616Z,13.02
2023-04-16T07:15:48.612Z,15.57
2023-04-16T07:18:15.844Z,14.70
2023-04-16T07:20:42.873Z,15.90
2023-04-16T07:23:09.815Z,16.33
2023-04-16T07:25:36.829Z,15.07
2023-04-16T07:28:04.060Z,15.93
2023-04-16T07:30:34.263Z,14.02
2023-04-16T07:33:03.655Z,14.52
2023-04-16T07:35:32.056Z,14.07
2023-04-16T07:37:59.016Z,12.70
2023-04-16T07:40:26.344Z,14.38
2023-04-16T07:42:53.330Z,13.75
2023-04-16T07:45:20.303Z,14.82
2023-04-16T07:47:47.701Z,13.75
2023-04-16T07:50:14.743Z,12.35
2023-04-16T07:52:43.723Z,13.20
2023-04-16T07:55:10.876Z,13.30
2023-04-16T07:57:38.181Z,12.40
2023-04-16T08:00:06.114Z,13.05
2023-04-16T08:02:33.640Z,13.60
2023-04-16T08:05:00.825Z,13.60
2023-04-16T08:07:27.816Z,11.23
2023-04-16T08:09:55.186Z,15.23
2023-04-16T08:12:22.423Z,11.70
2023-04-16T08:14:49.713Z,12.85
2023-04-16T08:17:16.879Z,13.18
2023-04-16T08:19:47.700Z,13.65
2023-04-16T08:22:14.940Z,14.27
2023-04-16T08:24:41.988Z,11.75
2023-04-16T08:27:18.637Z,11.57
2023-04-16T08:29:47.713Z,13.68
2023-04-16T08:32:14.633Z,11.70
2023-04-16T08:34:42.527Z,12.82
2023-04-16T08:37:09.945Z,14.43
2023-04-16T08:39:37.723Z,14.48
2023-04-16T08:42:11.714Z,13.73
2023-04-16T08:44:49.597Z,13.90
2023-04-16T08:47:17.580Z,24.88
2023-04-16T08:49:46.241Z,13.77
2023-04-16T08:52:22.266Z,13.52
2023-04-16T08:55:14.173Z,14.23
2023-04-16T08:57:58.694Z,13.23
2023-04-16T09:00:26.577Z,13.43
2023-04-16T09:02:54.292Z,11.55
2023-04-16T09:05:25.592Z,13.27
2023-04-16T09:07:54.634Z,12.23
2023-04-16T09:10:22.160Z,17.13
2023-04-16T09:12:49.073Z,73.28
2023-04-16T09:15:16.055Z,23.33
2023-04-16T09:17:43.065Z,15.73
2023-04-16T09:20:11.131Z,10.45
2023-04-16T09:22:40.269Z,8.98
2023-04-16T09:25:08.670Z,9.55
2023-04-16T09:27:37.192Z,9.82
2023-04-16T09:30:22.953Z,9.20
2023-04-16T09:32:51.757Z,10.95
2023-04-16T09:35:20.417Z,12.43
2023-04-16T09:38:00.859Z,9.02
2023-04-16T09:40:30.554Z,7.75
2023-04-16T09:42:58.838Z,9.18
2023-04-16T09:45:26.251Z,7.93
2023-04-16T09:47:53.241Z,8.70
2023-04-16T09:50:21.089Z,10.45
2023-04-16T09:52:51.660Z,9.30
2023-04-16T09:55:27.402Z,9.35
2023-04-16T09:58:01.072Z,8.32
2023-04-16T10:00:30.698Z,11.55
2023-04-16T10:03:05.816Z,10.52
2023-04-16T10:05:33.043Z,9.38
2023-04-16T10:08:03.320Z,9.65
2023-04-16T10:10:30.808Z,11.35
2023-04-16T10:12:58.430Z,9.30
2023-04-16T10:15:28.039Z,9.32
2023-04-16T10:17:57.064Z,9.60
2023-04-16T10:20:25.274Z,10.68
2023-04-16T10:22:54.336Z,12.18
2023-04-16T10:25:22.943Z,9.30
2023-04-16T10:27:51.134Z,9.48
2023-04-16T10:30:19.471Z,9.88
2023-04-16T10:32:47.071Z,16.00
2023-04-16T10:35:21.337Z,11.02
2023-04-16T10:37:48.339Z,10.07
2023-04-16T10:40:27.548Z,12.00
2023-04-16T10:43:03.656Z,10.68
2023-04-16T10:45:32.864Z,11.50
2023-04-16T10:48:04.342Z,15.45
2023-04-16T10:50:38.495Z,10.90
2023-04-16T10:53:19.249Z,10.88
2023-04-16T10:56:05.582Z,12.80
2023-04-16T10:58:36.296Z,51.35
2023-04-16T11:01:16.821Z,23.90
2023-04-16T11:03:47.314Z,14.80
2023-04-16T11:06:26.188Z,14.93
2023-04-16T11:08:55.282Z,10.63
2023-04-16T11:11:23.236Z,10.80
2023-04-16T11:13:54.648Z,10.02
2023-04-16T11:16:21.624Z,9.20
2023-04-16T11:18:50.872Z,12.02
2023-04-16T11:21:19.781Z,13.05
2023-04-16T11:23:49.927Z,10.93
2023-04-16T11:26:28.935Z,9.85
2023-04-16T11:28:57.132Z,14.57
2023-04-16T11:31:24.904Z,14.18
2023-04-16T11:33:51.968Z,11.07
2023-04-16T11:36:18.973Z,10.68
2023-04-16T11:38:47.068Z,14.77
2023-04-16T11:41:21.808Z,11.57
2023-04-16T11:43:48.832Z,9.15
2023-04-16T11:46:26.899Z,9.07
2023-04-16T11:48:56.203Z,14.35
2023-04-16T11:51:23.859Z,10.02
2023-04-16T11:53:54.960Z,12.10
2023-04-16T11:56:34.487Z,9.93
2023-04-16T11:59:11.160Z,6.90
2023-04-16T12:01:41.301Z,13.95
2023-04-16T12:04:09.191Z,9.73
2023-04-16T12:06:36.568Z,10.43
2023-04-16T12:09:27.133Z,12.38
2023-04-16T12:11:54.258Z,13.23
2023-04-16T12:14:23.799Z,15.48
2023-04-16T12:16:50.896Z,15.82
2023-04-16T12:19:18.906Z,13.50
2023-04-16T12:21:50.766Z,26.42
2023-04-16T12:24:24.174Z,15.80
2023-04-16T12:27:03.244Z,15.35
2023-04-16T12:29:30.311Z,16.02
2023-04-16T12:31:57.884Z,14.57
2023-04-16T12:34:30.662Z,16.85
2023-04-16T12:37:12.322Z,16.88
2023-04-16T12:39:39.275Z,22.80
2023-04-16T12:42:09.866Z,28.73
2023-04-16T12:44:36.850Z,35.17
2023-04-16T12:47:05.616Z,15.10
2023-04-16T12:49:32.770Z,13.18
2023-04-16T12:52:04.559Z,10.90
2023-04-16T12:54:48.577Z,9.77
2023-04-16T12:57:16.647Z,12.80
2023-04-16T12:59:43.605Z,10.65
2023-04-16T13:02:10.638Z,17.10
2023-04-16T13:04:37.798Z,11.30
2023-04-16T13:07:04.860Z,10.25
2023-04-16T13:09:31.725Z,10.77
2023-04-16T13:12:02.356Z,30.23
2023-04-16T13:14:29.277Z,23.13
2023-04-16T13:16:56.190Z,13.23
2023-04-16T13:19:23.141Z,10.00
2023-04-16T13:21:50.670Z,12.85
2023-04-16T13:24:17.697Z,11.85
2023-04-16T13:26:44.785Z,20.77
2023-04-16T13:29:11.976Z,13.63
2023-04-16T13:31:39.245Z,13.77
2023-04-16T13:34:06.308Z,14.98
2023-04-16T13:36:34.034Z,24.98
2023-04-16T13:39:01.082Z,14.68
2023-04-16T13:41:27.994Z,16.75
2023-04-16T13:43:55.005Z,21.45
2023-04-16T13:46:22.136Z,15.45
2023-04-16T13:48:49.163Z,16.02
2023-04-16T13:51:16.092Z,45.60
2023-04-16T13:53:42.999Z,39.83
2023-04-16T13:56:11.148Z,29.17
2023-04-16T13:58:38.888Z,15.73
2023-04-16T14:01:05.939Z,20.00
2023-04-16T14:03:36.024Z,14.15
2023-04-16T14:06:04.023Z,13.52
2023-04-16T14:08:31.394Z,11.73
2023-04-16T14:10:58.859Z,13.77
2023-04-16T14:13:26.166Z,13.90
2023-04-16T14:15:56.604Z,12.73
2023-04-16T14:18:23.551Z,15.85
2023-04-16T14:20:50.691Z,15.77
2023-04-16T14:23:17.964Z,15.05
2023-04-16T14:25:44.946Z,10.77
2023-04-16T14:28:13.050Z,13.93
2023-04-16T14:30:41.976Z,27.45
2023-04-16T14:33:08.863Z,20.13
2023-04-16T14:35:36.076Z,12.88
2023-04-16T14:38:03.157Z,10.43
2023-04-16T14:40:30.187Z,17.80
2023-04-16T14:42:57.122Z,17.70
2023-04-16T14:45:28.998Z,10.55
2023-04-16T14:47:56.024Z,10.55
2023-04-16T14:50:23.331Z,11.75
2023-04-16T14:52:53.246Z,15.63
2023-04-16T14:55:20.949Z,14.63
2023-04-16T14:57:47.843Z,12.82
2023-04-16T15:00:17.593Z,12.15
2023-04-16T15:02:46.165Z,13.20
2023-04-16T15:05:13.229Z,10.38
2023-04-16T15:07:40.398Z,11.50
2023-04-16T15:10:09.643Z,9.35
2023-04-16T15:12:37.880Z,7.78
2023-04-16T15:15:09.541Z,10.88
2023-04-16T15:17:36.659Z,8.40
2023-04-16T15:20:08.152Z,9.45
2023-04-16T15:22:35.376Z,10.00
2023-04-16T15:25:02.585Z,10.00
2023-04-16T15:27:29.480Z,9.38
2023-04-16T15:29:56.735Z,12.95
2023-04-16T15:32:23.740Z,11.60
2023-04-16T15:34:50.723Z,19.75
2023-04-16T15:37:17.650Z,9.32
2023-04-16T15:39:44.630Z,11.63
2023-04-16T15:42:11.916Z,9.85
2023-04-16T15:44:38.880Z,10.45
2023-04-16T15:47:07.881Z,9.63
2023-04-16T15:49:35.560Z,13.27
2023-04-16T15:52:02.884Z,14.45
2023-04-16T15:54:30.909Z,11.43
2023-04-16T15:56:58.918Z,12.02
2023-04-16T15:59:28.745Z,10.75
2023-04-16T16:01:55.818Z,10.60
2023-04-16T16:04:23.408Z,11.93
2023-04-16T16:06:51.134Z,12.90
2023-04-16T16:09:25.393Z,13.00
2023-04-16T16:11:56.938Z,11.93
2023-04-16T16:14:23.866Z,12.60
2023-04-16T16:16:51.290Z,13.02
2023-04-16T16:19:18.209Z,16.70
2023-04-16T16:21:45.284Z,14.45
2023-04-16T16:24:12.354Z,21.33
2023-04-16T16:26:40.076Z,21.35
2023-04-16T16:29:07.293Z,20.05
2023-04-16T16:31:34.605Z,16.67
2023-04-16T16:34:01.687Z,21.65
2023-04-16T16:36:30.175Z,17.35
2023-04-16T16:38:57.361Z,15.27
2023-04-16T16:41:24.502Z,18.75
2023-04-16T16:43:55.753Z,16.88
2023-04-16T16:46:23.064Z,18.42
2023-04-16T16:48:50.029Z,16.98
2023-04-16T16:51:18.906Z,20.85
2023-04-16T16:53:47.493Z,18.65
2023-04-16T16:56:14.465Z,22.92
2023-04-16T16:58:41.809Z,28.70
2023-04-16T17:01:08.906Z,24.70
2023-04-16T17:03:35.964Z,20.67
2023-04-16T17:06:03.174Z,17.52
2023-04-16T17:08:30.160Z,16.90
2023-04-16T17:10:57.112Z,20.42
2023-04-16T17:13:25.262Z,32.03
2023-04-16T17:15:52.168Z,20.65
2023-04-16T17:18:19.044Z,24.05
2023-04-16T17:20:45.951Z,23.45
2023-04-16T17:23:12.999Z,21.83
2023-04-16T17:25:39.992Z,25.60
2023-04-16T17:28:07.050Z,25.45
2023-04-16T17:30:34.317Z,24.08
2023-04-16T17:33:03.608Z,22.05
2023-04-16T17:35:31.297Z,18.55
2023-04-16T17:37:58.353Z,23.00
2023-04-16T17:40:25.548Z,27.55
2023-04-16T17:42:52.516Z,26.38
2023-04-16T17:45:22.275Z,29.90
2023-04-16T17:47:49.208Z,36.08
2023-04-16T17:50:16.425Z,37.30
2023-04-16T17:52:43.919Z,30.65
2023-04-16T17:55:11.925Z,33.42
2023-04-16T17:57:38.818Z,33.00
2023-04-16T18:00:09.866Z,29.63
2023-04-16T18:02:39.536Z,23.88
2023-04-16T18:05:07.902Z,27.13
2023-04-16T18:07:35.628Z,32.53
2023-04-16T18:10:02.539Z,27.40
2023-04-16T18:12:29.467Z,36.05
2023-04-16T18:14:56.426Z,28.27
2023-04-16T18:17:23.499Z,29.38
2023-04-16T18:19:50.475Z,51.72
2023-04-16T18:22:17.396Z,64.63
2023-04-16T18:24:44.248Z,53.42
2023-04-16T18:27:11.911Z,46.03
2023-04-16T18:29:40.554Z,45.17
2023-04-16T18:32:11.695Z,63.58
2023-04-16T18:34:39.437Z,67.93
2023-04-16T18:37:07.068Z,65.03
2023-04-16T18:39:34.429Z,61.05
2023-04-16T18:42:01.740Z,56.53
2023-04-16T18:44:30.149Z,41.70
2023-04-16T18:46:57.178Z,33.58
2023-04-16T18:49:24.547Z,21.10
2023-04-16T18:51:51.562Z,19.10
2023-04-16T18:54:20.432Z,19.98
2023-04-16T18:56:47.633Z,18.17
2023-04-16T18:59:14.614Z,19.00
2023-04-16T19:01:41.560Z,23.55
2023-04-16T19:04:08.522Z,24.83
2023-04-16T19:06:35.769Z,30.58
2023-04-16T19:09:02.710Z,47.13
2023-04-16T19:11:29.721Z,52.97
2023-04-16T19:13:57.632Z,31.33
2023-04-16T19:16:24.677Z,24.33
2023-04-16T19:18:51.852Z,23.10
2023-04-16T19:21:18.719Z,22.75
2023-04-16T19:23:45.917Z,28.30
2023-04-16T19:26:12.784Z,35.25
2023-04-16T19:28:39.977Z,39.90
2023-04-16T19:31:06.944Z,32.30
2023-04-16T19:33:34.296Z,36.42
2023-04-16T19:36:02.503Z,29.10
2023-04-16T19:38:31.797Z,33.40
2023-04-16T19:40:58.748Z,29.00
2023-04-16T19:43:25.789Z,27.20
2023-04-16T19:45:54.297Z,29.13
2023-04-16T19:48:21.494Z,36.90
2023-04-16T19:50:48.836Z,26.88
2023-04-16T19:53:17.192Z,24.40
2023-04-16T19:55:44.259Z,27.50
2023-04-16T19:58:11.295Z,26.67
2023-04-16T20:00:41.151Z,28.90
2023-04-16T20:03:08.550Z,27.58
2023-04-16T20:05:35.645Z,27.88
2023-04-16T20:08:02.580Z,24.80
2023-04-16T20:10:31.477Z,32.28
2023-04-16T20:12:58.780Z,24.50
2023-04-16T20:15:25.862Z,22.17
2023-04-16T20:17:53.426Z,23.58
2023-04-16T20:20:23.576Z,22.17
2023-04-16T20:22:50.828Z,24.33
2023-04-16T20:25:19.293Z,21.63
2023-04-16T20:27:46.570Z,21.42
2023-04-16T20:30:14.195Z,24.83
2023-04-16T20:32:41.235Z,25.30
2023-04-16T20:35:10.975Z,22.30
2023-04-16T20:37:38.715Z,23.38
2023-04-16T20:40:10.722Z,25.30
2023-04-16T20:42:37.834Z,28.60
2023-04-16T20:45:05.680Z,23.27
2023-04-16T20:47:34.879Z,21.42
2023-04-16T20:50:02.944Z,24.58
2023-04-16T20:52:29.915Z,19.35
2023-04-16T20:54:56.846Z,25.77
2023-04-16T20:57:23.783Z,22.63
2023-04-16T20:59:51.015Z,22.40
2023-04-16T21:02:18.032Z,22.08
2023-04-16T21:04:45.219Z,24.60
2023-04-16T21:07:12.244Z,25.13
2023-04-16T21:09:39.154Z,24.63
2023-04-16T21:12:06.404Z,23.50
2023-04-16T21:14:33.350Z,21.92
2023-04-16T21:17:00.345Z,23.40
2023-04-16T21:19:27.227Z,22.48
2023-04-16T21:21:54.145Z,26.67
2023-04-16T21:24:21.082Z,26.45
2023-04-16T21:26:48.340Z,22.13
2023-04-16T21:29:15.340Z,23.55
2023-04-16T21:31:42.360Z,21.63
2023-04-16T21:34:09.282Z,20.70
2023-04-16T21:36:36.251Z,21.58
2023-04-16T21:39:03.341Z,25.17
2023-04-16T21:41:30.224Z,20.02
2023-04-16T21:43:57.104Z,19.08
2023-04-16T21:46:25.437Z,18.88
2023-04-16T21:48:52.411Z,15.65
2023-04-16T21:51:20.098Z,20.50
2023-04-16T21:53:47.004Z,14.88
2023-04-16T21:56:14.847Z,15.48
2023-04-16T21:58:41.737Z,13.88
2023-04-16T22:01:10.868Z,15.57
2023-04-16T22:03:40.494Z,13.50
2023-04-16T22:06:08.024Z,14.98
2023-04-16T22:08:34.904Z,14.18
2023-04-16T22:11:03.139Z,15.55
2023-04-16T22:13:33.924Z,14.65
2023-04-16T22:16:03.914Z,17.88
2023-04-16T22:18:33.700Z,15.18
2023-04-16T22:21:01.044Z,19.08
2023-04-16T22:23:28.046Z,18.60
2023-04-16T22:25:56.224Z,16.33
2023-04-16T22:28:23.723Z,16.15
2023-04-16T22:30:51.181Z,15.57
2023-04-16T22:33:18.267Z,10.15
2023-04-16T22:35:45.605Z,12.27
2023-04-16T22:38:12.560Z,11.43
2023-04-16T22:40:39.464Z,11.00
2023-04-16T22:43:06.373Z,14.25
2023-04-16T22:45:33.367Z,12.40
2023-04-16T22:48:00.340Z,10.88
2023-04-16T22:50:28.531Z,10.95
2023-04-16T22:52:55.543Z,12.60
2023-04-16T22:55:22.672Z,15.25
2023-04-16T22:57:49.532Z,14.35
2023-04-16T23:00:17.950Z,13.50
2023-04-16T23:02:45.293Z,16.95
2023-04-16T23:05:12.359Z,18.33
2023-04-16T23:07:39.320Z,13.38
2023-04-16T23:10:08.632Z,10.27
2023-04-16T23:12:39.211Z,11.70
2023-04-16T23:15:07.048Z,11.23
2023-04-16T23:17:35.096Z,13.77
2023-04-16T23:20:02.398Z,10.10
2023-04-16T23:22:29.472Z,16.02
2023-04-16T23:24:57.087Z,18.63
2023-04-16T23:27:24.054Z,12.15
2023-04-16T23:29:50.915Z,11.85
2023-04-16T23:32:18.002Z,12.30
2023-04-16T23:34:45.016Z,12.30
2023-04-16T23:37:11.939Z,11.93
2023-04-16T23:39:38.856Z,12.27
2023-04-16T23:42:06.042Z,10.60
2023-04-16T23:44:33.251Z,13.35
2023-04-16T23:47:00.334Z,11.98
2023-04-16T23:49:27.407Z,11.88
2023-04-16T23:51:54.306Z,11.68
2023-04-16T23:54:21.731Z,11.30
2023-04-16T23:56:48.840Z,13.27
2023-04-16T23:59:16.777Z,11.38
